Time;durP1;ratioP1;P1;durP2;ratioP2;P2;SDS_P1;SDS_P2;PMS_P1;PMS_P2;Temp;Humidity;BMP_temperature;BMP_pressure;BME280_temperature;BME280_humidity;BME280_pressure;Samples;Min_cycle;Max_cycle;Signal;HPM_P1;HPM_P2
2022/07/13 00:01:06;;;;;;;7.90;1.80;;;14.90;99.90;;;;;;5008147;28;20042;-76
2022/07/13 00:03:40;;;;;;;3.13;1.40;;;14.80;99.90;;;;;;4988312;28;20026;-76
2022/07/13 00:06:08;;;;;;;2.40;1.45;;;14.80;99.90;;;;;;5005995;28;20050;-77
2022/07/13 00:08:36;;;;;;;3.95;1.90;;;14.80;99.90;;;;;;5011708;28;20018;-77
2022/07/13 00:11:06;;;;;;;5.38;1.70;;;14.70;99.90;;;;;;4999049;28;20068;-77
2022/07/13 00:13:38;;;;;;;3.25;1.50;;;14.70;99.90;;;;;;4986401;28;20027;-76
2022/07/13 00:16:06;;;;;;;4.38;2.00;;;14.60;99.90;;;;;;4982332;28;20082;-77
2022/07/13 00:18:34;;;;;;;3.78;1.50;;;14.60;99.90;;;;;;5009984;28;20138;-77
2022/07/13 00:21:08;;;;;;;4.47;1.70;;;14.60;99.90;;;;;;5010451;28;20386;-77
2022/07/13 00:23:36;;;;;;;1.90;1.50;;;14.60;99.90;;;;;;5009239;28;20052;-76
2022/07/13 00:26:01;;;;;;;2.20;1.33;;;14.60;99.90;;;;;;5007571;28;20014;-77
2022/07/13 00:28:27;;;;;;;2.22;1.63;;;14.50;99.90;;;;;;5011855;28;20383;-76
2022/07/13 00:30:57;;;;;;;3.45;1.83;;;14.50;99.90;;;;;;5010471;28;20131;-77
2022/07/13 00:33:26;;;;;;;4.70;1.63;;;14.50;99.90;;;;;;5010285;28;20040;-77
2022/07/13 00:35:51;;;;;;;2.72;1.70;;;14.40;99.90;;;;;;5011682;28;20084;-77
2022/07/13 00:38:20;;;;;;;2.20;1.42;;;14.40;99.90;;;;;;5008445;28;20533;-77
2022/07/13 00:40:45;;;;;;;3.58;1.70;;;14.40;99.90;;;;;;5004180;28;20030;-77
2022/07/13 00:43:16;;;;;;;4.68;1.50;;;14.30;99.90;;;;;;5011488;28;20026;-76
2022/07/13 00:45:42;;;;;;;2.25;1.42;;;14.30;99.90;;;;;;5011686;28;20068;-77
2022/07/13 00:48:07;;;;;;;2.88;1.50;;;14.30;99.90;;;;;;5007605;28;20459;-77
2022/07/13 00:50:33;;;;;;;4.20;1.60;;;14.30;99.90;;;;;;5011785;28;20028;-77
2022/07/13 00:52:59;;;;;;;2.20;1.50;;;14.30;99.90;;;;;;5010439;28;20438;-77
2022/07/13 00:55:25;;;;;;;2.10;1.60;;;14.20;99.90;;;;;;4991993;28;20018;-77
2022/07/13 00:57:51;;;;;;;3.45;1.52;;;14.20;99.90;;;;;;4992018;28;20424;-77
2022/07/13 01:00:19;;;;;;;5.38;1.40;;;14.20;99.90;;;;;;5022700;28;20147;-77
2022/07/13 01:02:46;;;;;;;4.03;1.67;;;14.20;99.90;;;;;;5025490;28;20081;-76
2022/07/13 01:05:17;;;;;;;2.00;1.50;;;14.10;99.90;;;;;;5011700;28;20104;-77
2022/07/13 01:07:46;;;;;;;2.45;1.50;;;14.10;99.90;;;;;;5026597;28;20846;-77
2022/07/13 01:10:28;;;;;;;3.20;1.50;;;14.10;99.90;;;;;;5029839;28;20080;-77
2022/07/13 01:13:04;;;;;;;5.20;1.50;;;14.00;99.90;;;;;;5009044;28;20033;-76
2022/07/13 01:15:40;;;;;;;;;;;;;;;;;;;;;
2022/07/13 01:18:06;;;;;;;4.68;1.60;;;14.00;99.90;;;;;;5029879;28;20025;-77
2022/07/13 01:20:35;;;;;;;5.32;1.80;;;14.00;99.90;;;;;;5031214;28;20018;-76
2022/07/13 01:23:10;;;;;;;3.47;1.45;;;13.90;99.90;;;;;;4996765;28;20040;-77
2022/07/13 01:25:36;;;;;;;3.50;1.88;;;13.80;99.90;;;;;;5025509;28;20018;-77
2022/07/13 01:28:02;;;;;;;2.83;1.60;;;13.80;99.90;;;;;;5015087;28;20034;-76
2022/07/13 01:30:27;;;;;;;2.45;1.40;;;13.80;99.90;;;;;;5026507;28;20046;-76
2022/07/13 01:32:56;;;;;;;3.03;1.40;;;13.70;99.90;;;;;;5016611;28;20470;-77
2022/07/13 01:35:32;;;;;;;2.92;1.50;;;13.70;99.90;;;;;;5034804;28;20071;-77
2022/07/13 01:38:01;;;;;;;3.53;1.80;;;13.70;99.90;;;;;;5021114;28;20109;-76
2022/07/13 01:40:29;;;;;;;3.10;1.60;;;13.60;99.90;;;;;;5027430;28;20029;-76
2022/07/13 01:42:55;;;;;;;4.30;1.63;;;13.60;99.90;;;;;;5016230;28;20037;-77
2022/07/13 01:45:25;;;;;;;4.47;1.38;;;13.60;99.90;;;;;;5024369;28;20374;-76
2022/07/13 01:47:53;;;;;;;3.45;1.50;;;13.60;99.90;;;;;;5031020;28;20025;-76
2022/07/13 01:50:25;;;;;;;2.08;1.70;;;13.60;99.90;;;;;;5007947;28;20057;-77
2022/07/13 01:52:50;;;;;;;2.10;1.30;;;13.60;99.90;;;;;;5009307;28;20053;-77
2022/07/13 01:55:17;;;;;;;3.30;1.60;;;13.50;99.90;;;;;;5026618;28;20447;-77
2022/07/13 01:57:43;;;;;;;2.42;1.60;;;13.50;99.90;;;;;;4999626;28;20077;-76
2022/07/13 02:00:19;;;;;;;2.13;1.70;;;13.50;99.90;;;;;;5018389;28;20046;-77
2022/07/13 02:02:46;;;;;;;2.03;1.60;;;13.50;99.90;;;;;;5016844;28;20018;-76
2022/07/13 02:05:12;;;;;;;5.40;1.80;;;13.50;99.90;;;;;;4996721;28;20033;-77
2022/07/13 02:07:42;;;;;;;3.38;1.70;;;13.50;99.90;;;;;;5018334;28;20022;-76
2022/07/13 02:10:09;;;;;;;1.73;1.40;;;13.40;99.90;;;;;;5030472;28;20034;-76
2022/07/13 02:12:35;;;;;;;2.53;1.70;;;13.40;99.90;;;;;;5033819;28;20025;-76
2022/07/13 02:15:01;;;;;;;3.63;1.48;;;13.40;99.90;;;;;;5016659;28;20079;-77
2022/07/13 02:17:27;;;;;;;3.75;1.58;;;13.30;99.90;;;;;;5032049;28;20108;-76
2022/07/13 02:19:53;;;;;;;4.80;1.60;;;13.30;99.90;;;;;;5020465;28;20018;-75
2022/07/13 02:22:19;;;;;;;3.85;2.28;;;13.30;99.90;;;;;;5033913;28;20045;-77
2022/07/13 02:24:44;;;;;;;4.70;1.45;;;13.30;99.90;;;;;;5024673;28;20071;-77
2022/07/13 02:27:12;;;;;;;3.33;1.75;;;13.20;99.90;;;;;;5033766;28;20029;-77
2022/07/13 02:29:38;;;;;;;3.05;1.80;;;13.30;99.90;;;;;;5012672;28;20034;-76
2022/07/13 02:32:06;;;;;;;3.80;1.65;;;13.20;99.90;;;;;;4996338;28;20080;-77
2022/07/13 02:34:34;;;;;;;5.07;1.90;;;13.20;99.90;;;;;;5014948;28;20383;-76
2022/07/13 02:37:05;;;;;;;5.05;1.63;;;13.20;99.90;;;;;;5026668;28;20057;-76
2022/07/13 02:39:33;;;;;;;2.67;1.50;;;13.20;99.90;;;;;;5015581;28;20045;-76
2022/07/13 02:42:00;;;;;;;4.15;1.60;;;13.20;99.90;;;;;;5032313;28;20036;-76
2022/07/13 02:44:26;;;;;;;2.92;1.70;;;13.20;99.90;;;;;;5033726;28;20079;-76
2022/07/13 02:46:51;;;;;;;2.42;1.67;;;13.20;99.90;;;;;;5019117;28;20017;-76
2022/07/13 02:49:17;;;;;;;2.67;1.70;;;13.20;99.90;;;;;;5033969;28;20026;-77
2022/07/13 02:51:45;;;;;;;5.28;1.70;;;13.20;99.90;;;;;;5032723;28;20075;-76
2022/07/13 02:54:16;;;;;;;2.78;1.52;;;13.20;99.90;;;;;;5014256;28;20447;-77
2022/07/13 02:56:45;;;;;;;2.22;1.35;;;13.20;99.90;;;;;;5027709;28;20433;-77
2022/07/13 02:59:20;;;;;;;;;;;;;;;;;;;;;
2022/07/13 03:01:46;;;;;;;3.80;1.70;;;13.20;99.90;;;;;;5033168;28;20485;-77
2022/07/13 03:04:15;;;;;;;2.55;2.00;;;13.20;99.90;;;;;;4995792;28;20022;-76
2022/07/13 03:06:41;;;;;;;2.38;1.80;;;13.20;99.90;;;;;;5008427;28;20025;-77
2022/07/13 03:09:07;;;;;;;2.67;1.80;;;13.20;99.90;;;;;;5016608;28;20116;-76
2022/07/13 03:11:35;;;;;;;3.40;1.58;;;13.30;99.90;;;;;;4995538;28;20026;-76
2022/07/13 03:14:05;;;;;;;3.55;1.60;;;13.30;99.90;;;;;;5013315;28;20097;-77
2022/07/13 03:16:34;;;;;;;2.80;1.65;;;13.30;99.90;;;;;;5008164;28;20032;-76
2022/07/13 03:19:02;;;;;;;4.35;1.80;;;13.30;99.90;;;;;;5027498;28;20018;-76
2022/07/13 03:21:29;;;;;;;3.15;1.63;;;13.20;99.90;;;;;;5019547;28;20033;-76
2022/07/13 03:23:55;;;;;;;3.33;1.70;;;13.30;99.90;;;;;;5032383;28;20067;-77
2022/07/13 03:26:23;;;;;;;4.97;1.60;;;13.30;99.90;;;;;;5026081;28;20378;-76
2022/07/13 03:28:49;;;;;;;6.05;1.85;;;13.30;99.90;;;;;;5025765;28;20021;-76
2022/07/13 03:31:15;;;;;;;3.33;1.77;;;13.20;99.90;;;;;;5013351;28;20034;-77
2022/07/13 03:33:41;;;;;;;2.85;1.80;;;13.20;99.90;;;;;;5030875;28;20013;-76
2022/07/13 03:36:08;;;;;;;2.72;1.90;;;13.20;99.90;;;;;;5032298;28;20052;-77
2022/07/13 03:38:36;;;;;;;3.53;1.70;;;13.20;99.90;;;;;;5031418;28;20017;-76
2022/07/13 03:41:07;;;;;;;3.22;1.80;;;13.20;99.90;;;;;;5022483;28;20079;-76
2022/07/13 03:43:35;;;;;;;4.60;1.75;;;13.20;99.90;;;;;;5032134;28;20044;-76
2022/07/13 03:46:00;;;;;;;2.47;1.58;;;13.20;99.90;;;;;;5024112;28;20097;-76
2022/07/13 03:48:26;;;;;;;5.15;2.15;;;13.20;99.90;;;;;;5013042;28;20148;-76
2022/07/13 03:50:52;;;;;;;4.25;2.00;;;13.20;99.90;;;;;;5020913;28;20032;-76
2022/07/13 03:53:19;;;;;;;4.35;2.00;;;13.20;99.90;;;;;;5029434;28;20029;-76
2022/07/13 03:55:45;;;;;;;4.68;2.20;;;13.10;99.90;;;;;;5032220;28;20433;-77
2022/07/13 03:58:11;;;;;;;5.57;1.90;;;13.20;99.90;;;;;;5032107;28;20041;-76
2022/07/13 04:00:37;;;;;;;4.13;2.05;;;13.10;99.90;;;;;;5009288;28;20108;-76
2022/07/13 04:03:04;;;;;;;3.15;1.80;;;13.20;99.90;;;;;;4992213;28;20037;-76
2022/07/13 04:05:32;;;;;;;6.07;2.10;;;13.10;99.90;;;;;;4989651;28;20026;-76
2022/07/13 04:07:57;;;;;;;4.65;2.75;;;13.20;99.90;;;;;;4990872;28;20610;-76
2022/07/13 04:10:23;;;;;;;4.70;2.22;;;13.10;99.90;;;;;;4990059;28;20026;-76
2022/07/13 04:12:52;;;;;;;5.00;2.10;;;13.20;99.90;;;;;;4985839;28;20450;-76
2022/07/13 04:15:18;;;;;;;4.18;2.70;;;13.20;99.90;;;;;;4984813;28;20379;-77
2022/07/13 04:17:44;;;;;;;6.55;2.58;;;13.20;99.90;;;;;;4993816;28;20032;-76
2022/07/13 04:20:14;;;;;;;3.25;2.22;;;13.30;99.90;;;;;;4992420;28;20026;-77
2022/07/13 04:22:40;;;;;;;4.18;2.40;;;13.30;99.90;;;;;;4985301;28;20081;-79
2022/07/13 04:25:06;;;;;;;5.15;2.17;;;13.40;99.90;;;;;;4984271;28;20039;-79
2022/07/13 04:27:31;;;;;;;5.38;2.25;;;13.50;99.90;;;;;;4986876;28;20030;-78
2022/07/13 04:29:57;;;;;;;3.92;2.35;;;13.60;99.90;;;;;;4986393;28;20422;-79
2022/07/13 04:32:23;;;;;;;6.53;2.63;;;13.70;99.90;;;;;;4983141;28;20029;-79
2022/07/13 04:34:48;;;;;;;6.35;2.05;;;13.80;99.90;;;;;;4980391;28;20106;-79
2022/07/13 04:37:14;;;;;;;4.70;2.20;;;13.90;99.90;;;;;;4982237;28;20055;-78
2022/07/13 04:39:40;;;;;;;3.42;1.58;;;14.00;99.90;;;;;;4986181;28;20121;-78
2022/07/13 04:42:05;;;;;;;3.08;2.10;;;14.10;99.90;;;;;;4979304;28;20045;-78
2022/07/13 04:44:31;;;;;;;3.92;1.98;;;14.20;99.90;;;;;;4989857;28;20022;-78
2022/07/13 04:46:57;;;;;;;3.83;1.90;;;14.30;99.90;;;;;;4988044;28;20505;-78
2022/07/13 04:49:22;;;;;;;5.45;2.25;;;14.40;99.90;;;;;;4988019;28;20022;-78
2022/07/13 04:51:49;;;;;;;3.55;1.67;;;14.50;99.90;;;;;;4985170;28;20106;-78
2022/07/13 04:54:18;;;;;;;3.42;2.00;;;14.60;99.90;;;;;;4993957;28;20030;-79
2022/07/13 04:56:44;;;;;;;3.85;1.90;;;14.70;99.90;;;;;;4990925;28;20023;-79
2022/07/13 04:59:10;;;;;;;5.20;1.70;;;14.80;99.90;;;;;;4978291;28;20019;-78
2022/07/13 05:01:35;;;;;;;3.22;1.70;;;15.00;99.90;;;;;;5003970;28;20044;-79
2022/07/13 05:04:04;;;;;;;2.42;1.73;;;15.00;99.90;;;;;;5012519;28;20036;-79
2022/07/13 05:06:30;;;;;;;5.25;1.60;;;15.20;99.90;;;;;;5003768;28;20141;-79
2022/07/13 05:08:56;;;;;;;3.47;1.50;;;15.30;99.90;;;;;;5014599;28;20037;-79
2022/07/13 05:11:21;;;;;;;5.03;1.80;;;15.40;99.90;;;;;;5006198;28;20030;-77
2022/07/13 05:13:47;;;;;;;4.32;2.00;;;15.50;99.90;;;;;;5000999;28;20626;-77
2022/07/13 05:16:12;;;;;;;4.85;1.77;;;15.60;99.90;;;;;;5004085;28;20456;-76
2022/07/13 05:18:38;;;;;;;3.55;1.58;;;15.80;99.90;;;;;;5010218;28;20030;-76
2022/07/13 05:21:04;;;;;;;2.53;1.60;;;15.90;99.90;;;;;;5009604;28;20387;-77
2022/07/13 05:23:29;;;;;;;4.05;2.00;;;16.00;99.90;;;;;;5009279;28;20478;-77
2022/07/13 05:25:55;;;;;;;2.30;1.50;;;16.10;99.90;;;;;;5009490;28;20049;-77
2022/07/13 05:28:21;;;;;;;3.13;1.52;;;16.20;99.90;;;;;;5007945;28;20430;-77
2022/07/13 05:30:46;;;;;;;3.33;1.85;;;16.40;99.90;;;;;;5008430;28;20033;-76
2022/07/13 05:33:14;;;;;;;2.35;1.83;;;16.50;99.90;;;;;;5009480;28;20034;-78
2022/07/13 05:35:40;;;;;;;3.58;1.92;;;16.60;99.90;;;;;;5008923;28;20040;-76
2022/07/13 05:38:06;;;;;;;3.42;1.52;;;16.70;99.90;;;;;;5008764;28;20018;-77
2022/07/13 05:40:32;;;;;;;3.45;1.60;;;16.90;99.90;;;;;;4991131;28;20088;-77
2022/07/13 05:42:57;;;;;;;6.05;2.17;;;17.10;99.90;;;;;;5008195;28;20029;-77
2022/07/13 05:45:23;;;;;;;4.05;1.60;;;17.20;99.90;;;;;;5008506;28;20532;-78
2022/07/13 05:47:48;;;;;;;3.78;1.50;;;17.40;99.90;;;;;;5020254;28;20551;-77
2022/07/13 05:50:15;;;;;;;2.47;1.65;;;17.50;99.90;;;;;;5023405;28;20035;-78
2022/07/13 05:52:41;;;;;;;6.13;2.13;;;17.70;99.90;;;;;;4990473;28;20316;-77
2022/07/13 05:55:08;;;;;;;4.75;1.55;;;17.90;99.90;;;;;;5021220;28;20029;-78
2022/07/13 05:57:34;;;;;;;2.63;1.58;;;18.00;99.90;;;;;;5007677;28;20091;-78
2022/07/13 05:59:59;;;;;;;2.75;1.38;;;18.20;99.90;;;;;;4975464;28;1040956;-78
2022/07/13 06:02:25;;;;;;;6.50;2.15;;;18.40;99.90;;;;;;5012475;28;20422;-78
2022/07/13 06:04:51;;;;;;;2.13;1.50;;;18.60;99.90;;;;;;5011052;28;20030;-78
2022/07/13 06:07:16;;;;;;;2.88;1.50;;;18.70;99.90;;;;;;5027534;28;20033;-78
2022/07/13 06:09:42;;;;;;;3.90;1.50;;;18.90;99.90;;;;;;5028107;28;20562;-77
2022/07/13 06:12:07;;;;;;;1.80;1.30;;;19.00;99.90;;;;;;5019947;28;20108;-78
2022/07/13 06:14:33;;;;;;;4.00;1.50;;;19.20;99.90;;;;;;5011917;28;20475;-78
2022/07/13 06:16:59;;;;;;;4.28;1.60;;;19.30;99.90;;;;;;5020130;28;20045;-78
2022/07/13 06:19:27;;;;;;;3.95;1.55;;;19.50;99.90;;;;;;5031919;28;20124;-78
2022/07/13 06:21:53;;;;;;;2.47;1.48;;;19.60;99.90;;;;;;5031382;28;20549;-78
2022/07/13 06:24:18;;;;;;;3.47;1.50;;;19.70;99.90;;;;;;5018013;28;20053;-77
2022/07/13 06:26:44;;;;;;;4.20;1.63;;;19.80;99.90;;;;;;5031498;28;20022;-78
2022/07/13 06:29:10;;;;;;;4.15;1.50;;;20.10;99.90;;;;;;5014021;28;20018;-78
2022/07/13 06:31:35;;;;;;;2.90;1.35;;;20.20;99.90;;;;;;5018828;28;20075;-78
2022/07/13 06:34:01;;;;;;;2.17;1.30;;;20.30;99.90;;;;;;5029891;28;20616;-78
2022/07/13 06:36:26;;;;;;;1.80;1.35;;;20.50;99.90;;;;;;5023349;28;20474;-78
2022/07/13 06:38:52;;;;;;;2.20;1.50;;;20.60;99.90;;;;;;5023837;28;20121;-78
2022/07/13 06:41:18;;;;;;;2.08;1.35;;;20.60;99.90;;;;;;5016293;28;20021;-78
2022/07/13 06:43:44;;;;;;;2.78;1.48;;;20.80;99.90;;;;;;5026432;28;20029;-76
2022/07/13 06:46:10;;;;;;;3.47;1.70;;;21.00;99.90;;;;;;5007387;28;20030;-76
2022/07/13 06:48:36;;;;;;;2.25;1.30;;;21.10;99.90;;;;;;5013443;28;20022;-76
2022/07/13 06:51:02;;;;;;;2.60;1.40;;;21.20;99.90;;;;;;5026220;28;20025;-76
2022/07/13 06:53:27;;;;;;;1.83;1.33;;;21.30;99.90;;;;;;4995132;28;20508;-77
2022/07/13 06:55:54;;;;;;;3.90;1.83;;;21.40;99.90;;;;;;5010168;28;20033;-77
2022/07/13 06:58:21;;;;;;;1.83;1.17;;;21.40;99.90;;;;;;5012214;28;20041;-77
2022/07/13 07:00:47;;;;;;;3.55;1.40;;;21.40;99.90;;;;;;5011423;28;20049;-77
2022/07/13 07:03:12;;;;;;;2.00;1.38;;;21.50;99.90;;;;;;5011948;28;20092;-77
2022/07/13 07:05:38;;;;;;;1.77;1.40;;;21.60;99.90;;;;;;4994354;28;20483;-77
2022/07/13 07:08:04;;;;;;;2.97;1.20;;;21.60;99.90;;;;;;4994387;28;20075;-77
2022/07/13 07:10:29;;;;;;;3.60;1.40;;;21.70;99.90;;;;;;4994167;28;20041;-77
2022/07/13 07:12:55;;;;;;;2.10;1.13;;;21.70;99.90;;;;;;5008543;28;20089;-77
2022/07/13 07:15:23;;;;;;;2.47;1.33;;;21.80;99.90;;;;;;5005312;28;20474;-77
2022/07/13 07:17:49;;;;;;;2.65;1.30;;;21.90;99.90;;;;;;4994176;28;20034;-77
2022/07/13 07:20:16;;;;;;;1.55;1.02;;;22.00;99.90;;;;;;5011249;28;20026;-77
2022/07/13 07:22:41;;;;;;;2.45;1.10;;;22.10;99.90;;;;;;5011251;28;20022;-77
2022/07/13 07:25:08;;;;;;;1.42;1.15;;;22.10;99.90;;;;;;5010626;28;20030;-77
2022/07/13 07:27:34;;;;;;;2.20;1.00;;;22.10;99.90;;;;;;5010850;28;20123;-77
2022/07/13 07:30:00;;;;;;;1.80;1.23;;;22.20;99.90;;;;;;5010934;28;20160;-77
2022/07/13 07:32:26;;;;;;;3.38;1.30;;;22.20;99.90;;;;;;5010497;28;20026;-77
2022/07/13 07:34:52;;;;;;;2.75;1.10;;;22.30;99.90;;;;;;4999770;28;20034;-77
2022/07/13 07:37:21;;;;;;;5.38;1.30;;;22.40;99.90;;;;;;5011505;28;20034;-77
2022/07/13 07:39:48;;;;;;;2.67;1.20;;;22.40;99.90;;;;;;5010307;28;20030;-77
2022/07/13 07:42:13;;;;;;;5.50;1.10;;;22.40;99.90;;;;;;5010679;28;20038;-77
2022/07/13 07:44:39;;;;;;;4.90;1.20;;;22.60;99.90;;;;;;5010339;28;20049;-77
2022/07/13 07:47:04;;;;;;;2.88;1.40;;;22.60;99.90;;;;;;5011232;28;20026;-77
2022/07/13 07:49:30;;;;;;;1.40;1.00;;;22.60;99.90;;;;;;5022187;28;20029;-77
2022/07/13 07:51:56;;;;;;;1.35;1.00;;;22.60;99.90;;;;;;5016052;28;20462;-77
2022/07/13 07:54:21;;;;;;;5.88;1.10;;;22.60;99.90;;;;;;5013812;28;20088;-78
2022/07/13 07:56:48;;;;;;;3.03;1.00;;;22.60;99.90;;;;;;5010497;28;20037;-77
2022/07/13 07:59:14;;;;;;;2.08;0.80;;;22.60;99.90;;;;;;4992651;28;20500;-77
2022/07/13 08:01:41;;;;;;;1.85;0.90;;;22.70;99.90;;;;;;5010438;28;20792;-77
2022/07/13 08:04:06;;;;;;;2.80;0.90;;;22.70;99.90;;;;;;5010194;28;20029;-77
2022/07/13 08:06:32;;;;;;;1.30;0.98;;;22.80;99.90;;;;;;5010589;28;20512;-78
2022/07/13 08:08:57;;;;;;;1.00;0.82;;;22.90;99.90;;;;;;5010322;28;20029;-76
2022/07/13 08:11:23;;;;;;;1.00;0.82;;;23.00;99.90;;;;;;5010156;28;20092;-75
2022/07/13 08:13:51;;;;;;;0.85;0.80;;;23.10;99.90;;;;;;5007364;28;20115;-78
2022/07/13 08:16:17;;;;;;;2.58;1.15;;;23.20;99.90;;;;;;5007480;28;20025;-78
2022/07/13 08:18:43;;;;;;;0.82;0.82;;;23.40;99.90;;;;;;5009526;28;20040;-78
2022/07/13 08:21:10;;;;;;;2.85;1.08;;;23.50;99.90;;;;;;5009736;28;20033;-76
2022/07/13 08:26:21;;;;;;;1.67;1.13;;;23.60;99.90;;;;;;5009386;28;20136;-76
2022/07/13 08:28:47;;;;;;;1.58;1.00;;;23.70;99.90;;;;;;5010626;28;20030;-76
2022/07/13 08:31:13;;;;;;;2.60;1.00;;;23.60;99.90;;;;;;5009557;28;20096;-76
2022/07/13 08:39:08;;;;;;;3.42;1.20;;;23.90;99.90;;;;;;5005609;28;20076;-76
2022/07/13 08:41:34;;;;;;;3.22;1.27;;;24.00;99.90;;;;;;5007031;28;20057;-76
2022/07/13 08:44:00;;;;;;;1.77;0.98;;;24.00;99.90;;;;;;4988823;28;20475;-75
2022/07/13 08:46:26;;;;;;;2.45;1.00;;;24.10;99.90;;;;;;4993385;28;20030;-76
2022/07/13 08:48:54;;;;;;;2.75;1.30;;;24.10;99.90;;;;;;4999471;28;20100;-77
2022/07/13 08:51:21;;;;;;;1.75;1.10;;;24.30;99.90;;;;;;5023292;28;20041;-76
2022/07/13 08:53:48;;;;;;;2.05;1.02;;;24.30;99.90;;;;;;5007105;28;20049;-78
2022/07/13 08:56:14;;;;;;;2.65;1.13;;;24.30;99.90;;;;;;5021291;28;20037;-77
2022/07/13 08:58:39;;;;;;;2.17;0.88;;;24.40;99.90;;;;;;5017305;28;20092;-77
2022/07/13 09:01:08;;;;;;;2.50;1.10;;;24.50;99.90;;;;;;5027041;28;20053;-77
2022/07/13 09:03:34;;;;;;;2.05;1.00;;;24.70;99.90;;;;;;5025001;28;20033;-78
2022/07/13 09:06:00;;;;;;;4.47;1.38;;;24.90;99.90;;;;;;5026451;28;20025;-78
2022/07/13 09:08:25;;;;;;;1.48;0.90;;;25.10;99.90;;;;;;5026988;28;20030;-77
2022/07/13 09:10:53;;;;;;;4.57;0.98;;;25.20;99.90;;;;;;5016292;28;20072;-77
2022/07/13 09:13:44;;;;;;;4.95;1.20;;;25.50;99.90;;;;;;5006947;28;20026;-78
2022/07/13 09:16:15;;;;;;;4.63;1.10;;;25.70;99.90;;;;;;5007648;28;20026;-80
2022/07/13 09:18:51;;;;;;;3.58;0.90;;;25.80;99.90;;;;;;4992552;28;20527;-79
2022/07/13 09:21:21;;;;;;;4.78;1.00;;;25.80;99.90;;;;;;5005414;28;20117;-79
2022/07/13 09:23:55;;;;;;;1.85;0.90;;;25.90;99.90;;;;;;5006643;28;20088;-77
2022/07/13 09:26:21;;;;;;;3.17;1.20;;;26.00;99.90;;;;;;5006417;28;20026;-77
2022/07/13 09:28:48;;;;;;;3.63;0.90;;;26.10;99.90;;;;;;4987872;28;20033;-77
2022/07/13 09:31:15;;;;;;;5.93;1.27;;;26.30;98.20;;;;;;5005889;28;20098;-75
2022/07/13 09:33:45;;;;;;;1.88;0.90;;;26.40;98.20;;;;;;5003949;28;20022;-76
2022/07/13 09:36:16;;;;;;;6.32;1.10;;;26.50;98.80;;;;;;5005650;28;20073;-76
2022/07/13 09:38:43;;;;;;;3.45;1.00;;;26.60;99.90;;;;;;5005319;28;20030;-76
2022/07/13 09:41:24;;;;;;;3.70;1.15;;;26.70;99.90;;;;;;5008102;28;20034;-76
2022/07/13 09:46:57;;;;;;;3.75;1.17;;;27.10;97.70;;;;;;5010224;28;20032;-76
2022/07/13 09:49:34;;;;;;;3.45;0.90;;;27.10;98.80;;;;;;5018326;28;20028;-76
2022/07/13 09:52:00;;;;;;;5.50;1.00;;;27.10;95.10;;;;;;5015436;28;20025;-76
2022/07/13 09:54:29;;;;;;;2.42;1.00;;;27.00;95.10;;;;;;5015544;28;20132;-76
2022/07/13 09:57:01;;;;;;;2.25;0.98;;;27.10;96.30;;;;;;5020931;28;20123;-76
2022/07/13 09:59:28;;;;;;;3.38;0.95;;;27.20;95.10;;;;;;5016620;28;20073;-76
2022/07/13 10:01:54;;;;;;;6.65;1.00;;;27.20;95.30;;;;;;5015128;28;20022;-76
2022/07/13 10:04:21;;;;;;;3.08;0.90;;;27.30;93.50;;;;;;5021811;28;20022;-76
2022/07/13 10:06:47;;;;;;;3.47;0.93;;;27.30;92.50;;;;;;5003002;28;20360;-76
2022/07/13 10:09:14;;;;;;;2.92;0.90;;;27.40;92.80;;;;;;5019529;28;20021;-76
2022/07/13 10:11:39;;;;;;;0.90;0.73;;;27.50;90.60;;;;;;5014985;28;20133;-77
2022/07/13 10:14:06;;;;;;;3.63;1.10;;;27.70;91.00;;;;;;5022267;28;20584;-76
2022/07/13 10:16:32;;;;;;;3.17;1.05;;;28.00;90.10;;;;;;5020677;28;20030;-77
2022/07/13 10:19:03;;;;;;;3.42;1.00;;;28.20;89.10;;;;;;5016032;28;20034;-77
2022/07/13 10:21:54;;;;;;;4.93;0.80;;;28.10;86.30;;;;;;5035156;28;20040;-69
2022/07/13 10:24:20;;;;;;;4.35;1.00;;;28.20;85.40;;;;;;5013871;28;20374;-68
2022/07/13 10:26:47;;;;;;;1.65;1.00;;;28.20;90.50;;;;;;5015733;28;20045;-67
2022/07/13 10:29:15;;;;;;;3.45;0.90;;;28.20;86.60;;;;;;5015769;28;20018;-69
2022/07/13 10:31:41;;;;;;;4.43;0.82;;;28.30;83.60;;;;;;5016134;28;20026;-69
2022/07/13 10:34:08;;;;;;;2.05;1.00;;;28.20;89.20;;;;;;5015810;28;20025;-69
2022/07/13 10:36:57;;;;;;;3.38;1.00;;;28.20;86.60;;;;;;5015609;28;20033;-68
2022/07/13 10:39:25;;;;;;;3.30;1.00;;;28.40;85.10;;;;;;5015569;28;20021;-68
2022/07/13 10:42:00;;;;;;;3.85;1.20;;;28.60;82.00;;;;;;5015737;28;20018;-68
2022/07/13 10:44:32;;;;;;;4.00;0.90;;;28.60;82.00;;;;;;5015400;28;20030;-68
2022/07/13 10:46:59;;;;;;;7.03;0.90;;;28.50;84.00;;;;;;5015400;28;20025;-69
2022/07/13 10:49:33;;;;;;;3.47;1.00;;;28.50;81.70;;;;;;5015879;28;20025;-68
2022/07/13 10:55:05;;;;;;;1.75;0.90;;;28.80;83.30;;;;;;5016304;28;20088;-69
2022/07/13 10:57:33;;;;;;;5.03;1.10;;;28.80;80.70;;;;;;5015743;28;20058;-68
2022/07/13 11:00:19;;;;;;;2.53;0.90;;;28.80;82.70;;;;;;5014659;28;20061;-69
2022/07/13 11:02:48;;;;;;;2.92;1.00;;;29.10;77.30;;;;;;5016018;28;20053;-68
2022/07/13 11:05:17;;;;;;;5.97;1.10;;;29.10;78.60;;;;;;5015995;28;20022;-68
2022/07/13 11:07:48;;;;;;;4.15;1.10;;;29.40;78.50;;;;;;5015294;28;20088;-68
2022/07/13 11:10:28;;;;;;;6.75;1.10;;;29.80;77.50;;;;;;5015310;28;20166;-69
2022/07/13 11:13:02;;;;;;;2.88;1.13;;;30.10;76.50;;;;;;5015425;28;20370;-69
2022/07/13 11:15:50;;;;;;;3.97;0.80;;;30.30;78.60;;;;;;5015817;28;20382;-68
2022/07/13 11:18:22;;;;;;;4.47;1.00;;;30.70;73.40;;;;;;5015486;28;20018;-68
2022/07/13 11:20:59;;;;;;;4.20;0.90;;;30.80;76.70;;;;;;5015018;28;20022;-68
2022/07/13 11:26:52;;;;;;;1.40;0.80;;;31.40;70.70;;;;;;5014869;28;20045;-69
2022/07/13 11:29:20;;;;;;;2.95;0.88;;;31.60;69.20;;;;;;5012952;28;20164;-69
2022/07/13 11:31:54;;;;;;;2.47;0.98;;;31.20;70.70;;;;;;5014823;28;20431;-69
2022/07/13 11:34:20;;;;;;;6.05;1.30;;;30.90;71.70;;;;;;4995105;28;20413;-69
2022/07/13 11:36:46;;;;;;;2.55;1.00;;;30.80;68.80;;;;;;5011740;28;20447;-69
2022/07/13 11:39:29;;;;;;;1.20;0.70;;;30.80;65.70;;;;;;5014742;28;20111;-68
2022/07/13 11:41:57;;;;;;;4.05;0.88;;;30.80;66.00;;;;;;5014579;28;20431;-69
2022/07/13 11:44:30;;;;;;;8.20;1.00;;;30.80;68.30;;;;;;5014356;28;20375;-70
2022/07/13 11:47:07;;;;;;;4.50;1.00;;;31.00;65.00;;;;;;5014669;28;20022;-69
2022/07/13 11:49:43;;;;;;;1.80;0.90;;;31.20;62.70;;;;;;4994691;28;20014;-69
2022/07/13 11:52:18;;;;;;;5.38;1.05;;;30.90;67.10;;;;;;5010191;28;20597;-69
2022/07/13 11:54:57;;;;;;;2.70;1.10;;;30.90;64.10;;;;;;5014268;28;20105;-69
2022/07/13 11:57:23;;;;;;;2.58;0.82;;;31.20;64.00;;;;;;4994635;28;20124;-69
2022/07/13 11:59:49;;;;;;;2.67;0.90;;;31.20;62.40;;;;;;4986377;28;20082;-69
2022/07/13 12:02:14;;;;;;;3.20;0.80;;;31.40;59.60;;;;;;4994512;28;20033;-69
2022/07/13 12:04:47;;;;;;;3.42;0.98;;;31.50;61.40;;;;;;4994611;28;20041;-69
2022/07/13 12:07:17;;;;;;;3.45;0.88;;;31.60;58.80;;;;;;4994483;28;20478;-69
2022/07/13 12:09:51;;;;;;;1.38;0.80;;;31.50;60.70;;;;;;4994065;28;20014;-69
2022/07/13 12:12:22;;;;;;;4.80;0.82;;;31.60;61.40;;;;;;4994203;28;20084;-69
2022/07/13 12:14:49;;;;;;;4.70;0.85;;;32.10;59.00;;;;;;4994348;28;20037;-69
2022/07/13 12:17:15;;;;;;;2.35;1.00;;;32.70;57.90;;;;;;4994568;28;20054;-69
2022/07/13 12:19:42;;;;;;;8.52;0.90;;;33.10;59.70;;;;;;4994263;28;20108;-69
2022/07/13 12:22:08;;;;;;;1.90;1.00;;;33.50;56.70;;;;;;4994661;28;20190;-69
2022/07/13 12:24:35;;;;;;;3.88;1.10;;;33.20;56.20;;;;;;4994196;28;20113;-69
2022/07/13 12:27:02;;;;;;;3.25;1.00;;;33.40;53.40;;;;;;4994541;28;20022;-69
2022/07/13 12:29:29;;;;;;;5.13;0.88;;;33.60;51.90;;;;;;4994230;28;20022;-68
2022/07/13 12:31:55;;;;;;;3.15;0.88;;;33.80;51.20;;;;;;4993860;28;20028;-69
2022/07/13 12:34:21;;;;;;;2.20;0.77;;;33.90;54.10;;;;;;4994600;28;20030;-69
2022/07/13 12:36:48;;;;;;;1.55;0.70;;;34.20;52.10;;;;;;4993956;28;20026;-69
2022/07/13 12:39:13;;;;;;;2.22;0.90;;;33.90;50.50;;;;;;4994006;28;20400;-69
2022/07/13 12:41:42;;;;;;;3.08;0.95;;;33.70;52.50;;;;;;4993756;28;20077;-69
2022/07/13 12:44:09;;;;;;;3.67;0.80;;;33.30;51.70;;;;;;4993901;28;20030;-69
2022/07/13 12:46:54;;;;;;;2.65;1.05;;;33.30;53.70;;;;;;4993722;28;20030;-68
2022/07/13 12:49:27;;;;;;;4.28;0.85;;;33.00;52.60;;;;;;4993711;28;20034;-69
2022/07/13 12:51:53;;;;;;;4.00;0.75;;;33.00;54.60;;;;;;4993739;28;20022;-68
2022/07/13 12:54:45;;;;;;;4.97;0.90;;;32.90;53.00;;;;;;4993884;28;20498;-68
2022/07/13 12:57:21;;;;;;;2.67;1.02;;;33.00;51.60;;;;;;4993916;28;20026;-69
2022/07/13 13:00:07;;;;;;;7.75;0.85;;;33.00;49.60;;;;;;5001173;28;20033;-69
2022/07/13 13:02:33;;;;;;;2.35;0.70;;;33.00;50.40;;;;;;5013685;28;20105;-69
2022/07/13 13:04:59;;;;;;;2.35;0.70;;;32.90;51.60;;;;;;5013314;28;20414;-69
2022/07/13 13:07:25;;;;;;;2.75;1.00;;;33.00;53.10;;;;;;5013319;28;20033;-69
2022/07/13 13:09:50;;;;;;;2.17;0.80;;;33.40;51.30;;;;;;5013241;28;20085;-69